createdAt,value
2017-08-17T00:05:25.157Z,96124
2017-08-17T00:10:53.344Z,96123
2017-08-17T00:16:21.556Z,96117
2017-08-17T00:21:49.750Z,96126
2017-08-17T00:27:17.932Z,96123
2017-08-17T00:32:46.073Z,96118
2017-08-17T00:38:14.248Z,96107
2017-08-17T00:43:42.488Z,96110
2017-08-17T00:49:10.766Z,96106
2017-08-17T00:54:39.043Z,96104
2017-08-17T01:00:07.290Z,96103
2017-08-17T01:05:35.456Z,96083
2017-08-17T01:11:03.598Z,96087
2017-08-17T01:16:31.753Z,96095
2017-08-17T01:22:00.695Z,96085
2017-08-17T01:27:28.834Z,96079
2017-08-17T01:32:56.985Z,96082
2017-08-17T01:38:25.292Z,96077
2017-08-17T01:43:53.483Z,96076
2017-08-17T01:49:22.012Z,96066
2017-08-17T01:54:51.065Z,96062
2017-08-17T02:00:19.241Z,96056
2017-08-17T02:05:47.411Z,96061
2017-08-17T02:11:15.571Z,96071
2017-08-17T02:16:43.755Z,96075
2017-08-17T02:22:11.911Z,96063
2017-08-17T02:27:40.056Z,96057
2017-08-17T02:33:08.206Z,96057
2017-08-17T02:38:36.360Z,96045
2017-08-17T02:44:04.516Z,96042
2017-08-17T02:49:33.694Z,96045
2017-08-17T02:55:02.989Z,96044
2017-08-17T03:00:31.156Z,96033
2017-08-17T03:05:59.286Z,96041
2017-08-17T03:11:27.460Z,96046
2017-08-17T03:16:55.620Z,96055
2017-08-17T03:22:23.786Z,96048
2017-08-17T03:27:51.946Z,96048
2017-08-17T03:33:20.113Z,96047
2017-08-17T03:38:48.354Z,96040
2017-08-17T03:44:16.750Z,96044
2017-08-17T03:49:44.985Z,96047
2017-08-17T03:55:13.130Z,96053
2017-08-17T04:00:41.299Z,96055
2017-08-17T04:06:09.472Z,96066
2017-08-17T04:11:37.622Z,96071
2017-08-17T04:17:06.210Z,96066
2017-08-17T04:22:34.393Z,96062
2017-08-17T04:28:02.543Z,96068
2017-08-17T04:33:30.785Z,96062
2017-08-17T04:38:58.942Z,96060
2017-08-17T04:44:27.123Z,96055
2017-08-17T04:49:55.288Z,96055
2017-08-17T04:55:23.543Z,96052
2017-08-17T05:00:51.774Z,96041
2017-08-17T05:06:20.131Z,96048
2017-08-17T05:11:48.297Z,96058
2017-08-17T05:17:16.457Z,96060
2017-08-17T05:22:44.604Z,96060
2017-08-17T05:28:12.755Z,96072
2017-08-17T05:33:40.923Z,96067
2017-08-17T05:39:09.089Z,96075
2017-08-17T05:44:37.253Z,96071
2017-08-17T05:50:05.415Z,96074
2017-08-17T05:55:33.558Z,96071
2017-08-17T06:01:01.712Z,96071
2017-08-17T06:06:29.856Z,96075
2017-08-17T06:11:58.008Z,96074
2017-08-17T06:17:26.147Z,96074
2017-08-17T06:22:54.325Z,96069
2017-08-17T06:28:22.488Z,96070
2017-08-17T06:33:50.656Z,96059
2017-08-17T06:39:18.817Z,96062
2017-08-17T06:44:46.974Z,96071
2017-08-17T06:50:15.113Z,96077
2017-08-17T06:55:43.270Z,96072
2017-08-17T07:01:11.428Z,96071
2017-08-17T07:06:39.589Z,96071
2017-08-17T07:12:07.739Z,96071
2017-08-17T07:17:35.903Z,96083
2017-08-17T07:23:04.056Z,96094
2017-08-17T07:28:32.192Z,96098
2017-08-17T07:34:01.116Z,96099
2017-08-17T07:39:29.266Z,96097
2017-08-17T07:44:57.417Z,96098
2017-08-17T07:50:25.564Z,96112
2017-08-17T07:55:53.717Z,96114
2017-08-17T08:01:21.860Z,96115
2017-08-17T08:06:50.801Z,96110
2017-08-17T08:12:18.960Z,96111
2017-08-17T08:17:47.111Z,96104
2017-08-17T08:23:15.245Z,96105
2017-08-17T08:28:43.424Z,96102
2017-08-17T08:34:11.562Z,96108
2017-08-17T08:39:39.719Z,96109
2017-08-17T08:45:07.863Z,96104
2017-08-17T08:50:36.004Z,96108
2017-08-17T08:56:04.153Z,96102
2017-08-17T09:01:33.082Z,96109
2017-08-17T09:07:01.599Z,96105
2017-08-17T09:12:29.747Z,96107
2017-08-17T09:17:57.887Z,96109
2017-08-17T09:23:26.073Z,96108
2017-08-17T09:28:54.234Z,96100
2017-08-17T09:34:22.427Z,96092
2017-08-17T09:39:50.581Z,96088
2017-08-17T09:45:18.731Z,96081
2017-08-17T09:50:46.897Z,96077
2017-08-17T09:56:15.047Z,96078
2017-08-17T10:01:43.188Z,96071
2017-08-17T10:07:11.344Z,96070
2017-08-17T10:12:39.486Z,96071
2017-08-17T10:18:08.400Z,96054
2017-08-17T10:23:36.532Z,96041
2017-08-17T10:29:04.681Z,96036
2017-08-17T10:34:32.845Z,96049
2017-08-17T10:40:01.564Z,96046
2017-08-17T10:45:29.711Z,96043
2017-08-17T10:50:57.861Z,96034
2017-08-17T10:56:27.599Z,96035
2017-08-17T11:01:55.844Z,96035
2017-08-17T11:07:24.024Z,96031
2017-08-17T11:12:52.992Z,96028
2017-08-17T11:18:21.144Z,96020
2017-08-17T11:23:49.287Z,96014
2017-08-17T11:29:17.433Z,96012
2017-08-17T11:34:45.589Z,96006
2017-08-17T11:40:13.757Z,96002
2017-08-17T11:45:41.931Z,95998
2017-08-17T11:51:09.475Z,95998
2017-08-17T11:56:37.648Z,95994
2017-08-17T12:02:05.803Z,95993
2017-08-17T12:07:34.725Z,96000
2017-08-17T12:13:02.893Z,95982
2017-08-17T12:18:31.034Z,95991
2017-08-17T12:23:59.176Z,95981
2017-08-17T12:29:27.318Z,95974
2017-08-17T12:34:55.464Z,95964
2017-08-17T12:40:24.382Z,95967
2017-08-17T12:45:52.532Z,95971
2017-08-17T12:51:21.528Z,95967
2017-08-17T12:56:49.682Z,95967
2017-08-17T13:02:17.826Z,95957
2017-08-17T13:07:45.971Z,95953
2017-08-17T13:13:14.128Z,95955
2017-08-17T13:18:42.763Z,95960
2017-08-17T13:24:10.912Z,95960
2017-08-17T13:29:39.063Z,95954
2017-08-17T13:35:07.223Z,95952
2017-08-17T13:40:35.362Z,95948
2017-08-17T13:46:03.495Z,95944
2017-08-17T13:51:31.639Z,95942
2017-08-17T13:56:59.781Z,95934
2017-08-17T14:02:28.714Z,95934
2017-08-17T14:07:56.845Z,95928
2017-08-17T14:13:25.027Z,95931
2017-08-17T14:18:53.292Z,95930
2017-08-17T14:24:21.799Z,95923
2017-08-17T14:29:50.718Z,95922
2017-08-17T14:35:18.899Z,95924
2017-08-17T14:40:47.058Z,95925
2017-08-17T14:46:15.212Z,95928
2017-08-17T14:51:43.346Z,95919
2017-08-17T14:57:11.496Z,95922
2017-08-17T15:02:39.627Z,95916
2017-08-17T15:08:08.545Z,95919
2017-08-17T15:13:36.710Z,95927
2017-08-17T15:19:04.850Z,95932
2017-08-17T15:24:33.008Z,95926
2017-08-17T15:30:01.164Z,95930
2017-08-17T15:35:29.342Z,95932
2017-08-17T15:40:57.997Z,95928
2017-08-17T15:46:26.263Z,95928
2017-08-17T15:51:54.467Z,95932
2017-08-17T15:57:22.657Z,95944
2017-08-17T16:02:50.841Z,95940
2017-08-17T16:08:18.983Z,95935
2017-08-17T16:13:47.149Z,95935
2017-08-17T16:19:15.293Z,95940
2017-08-17T16:24:43.436Z,95956
2017-08-17T16:30:11.583Z,95950
2017-08-17T16:35:40.516Z,95956
2017-08-17T16:41:08.692Z,95947
2017-08-17T16:46:36.839Z,95952
2017-08-17T16:52:05.018Z,95954
2017-08-17T16:57:33.152Z,95958
2017-08-17T17:03:01.288Z,95956
2017-08-17T17:08:29.467Z,95950
2017-08-17T17:13:57.619Z,95949
2017-08-17T17:19:25.840Z,95952
2017-08-17T17:24:54.025Z,95951
2017-08-17T17:30:22.230Z,95955
2017-08-17T17:35:51.215Z,95975
2017-08-17T17:41:19.359Z,95981
2017-08-17T17:46:47.504Z,95975
2017-08-17T17:52:15.665Z,95971
2017-08-17T17:57:43.823Z,95965
2017-08-17T18:03:12.012Z,95967
2017-08-17T18:08:40.176Z,95975
2017-08-17T18:14:08.331Z,95973
2017-08-17T18:20:18.692Z,95986
2017-08-17T18:25:46.856Z,95991
2017-08-17T18:31:15.832Z,95990
2017-08-17T18:36:44.012Z,95986
2017-08-17T18:42:12.166Z,95984
2017-08-17T18:47:40.294Z,95981
2017-08-17T18:53:08.444Z,95986
2017-08-17T18:58:36.598Z,95991
2017-08-17T19:04:04.752Z,96007
2017-08-17T19:09:32.895Z,96008
2017-08-17T19:15:01.811Z,96016
2017-08-17T19:20:29.958Z,96026
2017-08-17T19:25:58.132Z,96007
2017-08-17T19:31:26.282Z,95991
2017-08-17T19:36:54.444Z,95985
2017-08-17T19:42:22.647Z,95986
2017-08-17T19:47:51.069Z,95986
2017-08-17T19:53:20.027Z,95979
2017-08-17T19:58:48.187Z,95983
2017-08-17T20:04:16.408Z,95975
2017-08-17T20:09:45.335Z,95973
2017-08-17T20:15:13.501Z,95973
2017-08-17T20:20:41.701Z,95963
2017-08-17T20:26:10.635Z,95967
2017-08-17T20:31:38.795Z,95961
2017-08-17T20:37:06.968Z,95959
2017-08-17T20:42:35.124Z,95964
2017-08-17T20:48:03.276Z,95961
2017-08-17T20:53:31.432Z,95960
2017-08-17T20:58:59.606Z,95967
2017-08-17T21:04:27.771Z,95962
2017-08-17T21:09:55.940Z,95971
2017-08-17T21:15:24.909Z,95964
2017-08-17T21:20:53.849Z,95974
2017-08-17T21:26:22.063Z,95979
2017-08-17T21:31:50.222Z,95977
2017-08-17T21:37:18.390Z,95973
2017-08-17T21:42:46.544Z,95980
2017-08-17T21:48:15.456Z,95979
2017-08-17T21:53:43.642Z,95984
2017-08-17T21:59:11.841Z,95980
2017-08-17T22:04:40.084Z,95988
2017-08-17T22:10:09.032Z,95992
2017-08-17T22:15:37.251Z,95991
2017-08-17T22:21:05.430Z,95995
2017-08-17T22:26:33.601Z,95980
2017-08-17T22:32:01.762Z,95975
2017-08-17T22:37:29.928Z,95975
2017-08-17T22:42:58.094Z,95986
2017-08-17T22:48:26.275Z,95991
2017-08-17T22:53:54.444Z,95986
2017-08-17T22:59:22.603Z,95995
2017-08-17T23:04:50.782Z,95992
2017-08-17T23:10:18.956Z,95987
2017-08-17T23:15:47.225Z,95985
2017-08-17T23:21:15.384Z,95978
2017-08-17T23:26:44.434Z,95979
2017-08-17T23:32:12.582Z,95966
2017-08-17T23:37:41.077Z,95970
2017-08-17T23:43:09.223Z,95963
2017-08-17T23:48:37.358Z,95962
2017-08-17T23:54:05.504Z,95962
2017-08-17T23:59:33.662Z,95959
